Time;durP1;ratioP1;P1;durP2;ratioP2;P2;SDS_P1;SDS_P2;PMS_P1;PMS_P2;Temp;Humidity;BMP_temperature;BMP_pressure;BME280_temperature;BME280_humidity;BME280_pressure;Samples;Min_cycle;Max_cycle;Signal;HPM_P1;HPM_P2
2023/07/16 00:01:23;;;;;;;4.82;2.97;;;;;;;;;;4933508;29;20075;-76
2023/07/16 00:03:49;;;;;;;3.65;3.10;;;;;;;;;;4935402;29;20377;-73
2023/07/16 00:06:15;;;;;;;3.47;3.17;;;;;;;;;;4936632;29;20023;-76
2023/07/16 00:08:41;;;;;;;3.90;2.80;;;;;;;;;;4937030;29;20385;-77
2023/07/16 00:11:07;;;;;;;3.35;3.08;;;;;;;;;;4919856;29;20062;-74
2023/07/16 00:13:33;;;;;;;5.95;3.67;;;;;;;;;;4936550;29;20102;-76
2023/07/16 00:15:59;;;;;;;3.67;3.38;;;;;;;;;;4944345;29;20028;-76
2023/07/16 00:18:25;;;;;;;3.75;3.33;;;;;;;;;;4946799;29;20116;-74
2023/07/16 00:20:51;;;;;;;5.22;3.17;;;;;;;;;;4946766;29;20034;-74
2023/07/16 00:23:17;;;;;;;6.28;3.88;;;;;;;;;;4951980;29;20012;-74
2023/07/16 00:25:43;;;;;;;3.33;3.10;;;;;;;;;;4955028;29;20024;-75
2023/07/16 00:28:09;;;;;;;4.80;3.60;;;;;;;;;;4947320;29;20048;-75
2023/07/16 00:30:35;;;;;;;3.92;3.15;;;;;;;;;;4923479;29;20470;-75
2023/07/16 00:33:00;;;;;;;5.55;3.25;;;;;;;;;;4930547;29;20108;-74
2023/07/16 00:35:26;;;;;;;3.40;2.92;;;;;;;;;;4931626;29;20056;-74
2023/07/16 00:37:53;;;;;;;3.58;2.72;;;;;;;;;;4934905;29;20047;-74
2023/07/16 00:40:19;;;;;;;3.85;3.28;;;;;;;;;;4919421;29;20021;-75
2023/07/16 00:42:45;;;;;;;4.35;3.00;;;;;;;;;;4907950;29;20028;-73
2023/07/16 00:45:14;;;;;;;3.25;2.83;;;;;;;;;;4890981;29;20020;-76
2023/07/16 00:47:41;;;;;;;3.50;2.72;;;;;;;;;;4909952;29;20076;-75
2023/07/16 00:50:08;;;;;;;3.08;2.65;;;;;;;;;;4890243;29;20095;-75
2023/07/16 00:52:34;;;;;;;4.40;2.97;;;;;;;;;;4908995;29;20020;-75
2023/07/16 00:55:00;;;;;;;3.28;2.50;;;;;;;;;;4906803;29;20024;-75
2023/07/16 00:57:26;;;;;;;4.10;2.83;;;;;;;;;;4909338;29;20395;-74
2023/07/16 00:59:52;;;;;;;5.57;2.85;;;;;;;;;;4905578;29;20031;-75
2023/07/16 01:02:18;;;;;;;3.10;2.83;;;;;;;;;;4909008;29;20032;-74
2023/07/16 01:04:44;;;;;;;6.57;3.05;;;;;;;;;;4906628;29;20039;-72
2023/07/16 01:07:12;;;;;;;3.28;2.83;;;;;;;;;;4907405;29;20505;-74
2023/07/16 01:09:41;;;;;;;2.78;2.50;;;;;;;;;;4909803;29;20107;-75
2023/07/16 01:12:08;;;;;;;4.30;2.90;;;;;;;;;;4894735;29;20032;-75
2023/07/16 01:14:35;;;;;;;3.28;2.97;;;;;;;;;;4933979;29;20075;-74
2023/07/16 01:17:07;;;;;;;5.97;2.88;;;;;;;;;;4933585;29;20034;-75
2023/07/16 01:19:34;;;;;;;3.25;2.78;;;;;;;;;;4934015;29;20027;-75
2023/07/16 01:22:00;;;;;;;2.88;2.40;;;;;;;;;;4933707;29;20039;-74
2023/07/16 01:24:45;;;;;;;2.60;2.40;;;;;;;;;;4933885;29;20036;-74
2023/07/16 01:27:29;;;;;;;3.92;2.65;;;;;;;;;;4923065;29;20128;-73
2023/07/16 01:29:59;;;;;;;3.72;2.60;;;;;;;;;;4919943;29;20024;-74
2023/07/16 01:32:25;;;;;;;3.20;2.42;;;;;;;;;;4925523;29;20028;-74
2023/07/16 01:34:53;;;;;;;2.83;2.30;;;;;;;;;;4932682;29;20059;-74
2023/07/16 01:37:19;;;;;;;2.92;2.60;;;;;;;;;;4934546;29;20032;-74
2023/07/16 01:39:45;;;;;;;3.40;2.25;;;;;;;;;;4933267;29;20027;-73
2023/07/16 01:42:12;;;;;;;2.53;2.35;;;;;;;;;;4923606;29;20039;-74
2023/07/16 01:44:38;;;;;;;3.13;2.45;;;;;;;;;;4931125;29;20038;-74
2023/07/16 01:47:05;;;;;;;2.72;2.40;;;;;;;;;;4916449;29;20805;-73
2023/07/16 01:49:31;;;;;;;4.05;2.30;;;;;;;;;;4933916;29;20047;-73
2023/07/16 01:51:57;;;;;;;3.25;2.28;;;;;;;;;;4933703;29;20464;-73
2023/07/16 01:54:23;;;;;;;2.63;2.42;;;;;;;;;;4934202;29;20027;-73
2023/07/16 01:56:49;;;;;;;2.60;2.40;;;;;;;;;;4933394;29;20042;-72
2023/07/16 01:59:15;;;;;;;2.80;2.47;;;;;;;;;;4933874;29;20040;-76
2023/07/16 02:01:41;;;;;;;1.70;1.60;;;;;;;;;;4923510;29;20027;-72
2023/07/16 02:04:06;;;;;;;1.60;1.50;;;18.60;99.90;;;;;;4932993;29;20917;-73
2023/07/16 02:06:32;;;;;;;4.15;1.70;;;;;;;;;;4934015;29;20031;-73
2023/07/16 02:08:58;;;;;;;2.53;1.42;;;;;;;;;;4932614;29;20032;-73
2023/07/16 02:11:24;;;;;;;2.70;1.60;;;;;;;;;;4934141;29;20047;-73
2023/07/16 02:13:50;;;;;;;1.98;1.60;;;;;;;;;;4933137;29;20095;-72
2023/07/16 02:16:16;;;;;;;3.28;1.77;;;;;;;;;;4934047;29;20032;-73
2023/07/16 02:18:42;;;;;;;4.70;1.73;;;;;;;;;;4914164;29;20180;-73
2023/07/16 02:21:08;;;;;;;2.30;1.67;;;;;;;;;;4932967;29;20035;-73
2023/07/16 02:23:34;;;;;;;2.58;1.40;;;;;;;;;;4918303;29;20024;-73
2023/07/16 02:26:01;;;;;;;1.70;1.60;;;;;;;;;;4932707;29;20024;-73
2023/07/16 02:28:27;;;;;;;4.85;1.63;;;;;;;;;;4933680;29;20385;-73
2023/07/16 02:30:53;;;;;;;1.55;1.45;;;;;;;;;;4919392;29;20085;-72
2023/07/16 02:33:19;;;;;;;3.67;1.77;;;;;;;;;;4931756;29;20024;-72
2023/07/16 02:35:48;;;;;;;4.28;1.92;;;;;;;;;;4904154;29;20119;-73
2023/07/16 02:38:15;;;;;;;3.53;2.03;;;;;;;;;;4917522;29;20174;-72
2023/07/16 02:40:47;;;;;;;4.28;2.10;;;;;;;;;;4910181;29;20100;-72
2023/07/16 02:43:13;;;;;;;2.33;1.80;;;;;;;;;;4915394;29;20030;-73
2023/07/16 02:45:39;;;;;;;2.42;1.80;;;;;;;;;;4918045;29;20039;-73
2023/07/16 02:48:05;;;;;;;2.08;1.88;;;;;;;;;;4917375;29;20665;-73
2023/07/16 02:50:35;;;;;;;2.92;2.17;;;;;;;;;;4917999;29;20028;-72
2023/07/16 02:53:01;;;;;;;3.03;2.28;;;;;;;;;;4914847;29;20020;-73
2023/07/16 02:55:27;;;;;;;1.90;1.80;;;;;;;;;;4917511;29;20032;-72
2023/07/16 02:57:53;;;;;;;3.25;1.90;;;;;;;;;;4917310;29;20545;-73
2023/07/16 03:00:19;;;;;;;2.47;1.85;;;;;;;;;;4900812;29;20031;-72
2023/07/16 03:02:45;;;;;;;4.75;1.80;;;;;;;;;;4917750;29;20431;-73
2023/07/16 03:05:11;;;;;;;1.80;1.70;;;;;;;;;;4917137;29;20032;-73
2023/07/16 03:07:37;;;;;;;2.80;2.00;;;;;;;;;;4917906;29;20416;-72
2023/07/16 03:10:03;;;;;;;2.83;1.73;;;;;;;;;;4905830;29;20075;-73
2023/07/16 03:12:29;;;;;;;3.15;1.58;;;;;;;;;;4918011;29;20043;-72
2023/07/16 03:14:55;;;;;;;2.17;1.77;;;;;;;;;;4916481;29;20099;-72
2023/07/16 03:17:22;;;;;;;4.45;1.50;;;;;;;;;;4917681;29;20032;-72
2023/07/16 03:19:48;;;;;;;3.90;1.70;;;;;;;;;;4916587;29;20031;-72
2023/07/16 03:22:14;;;;;;;6.93;1.80;;;;;;;;;;4917688;29;20064;-72
2023/07/16 03:24:40;;;;;;;3.13;1.75;;;;;;;;;;4917187;29;20052;-72
2023/07/16 03:27:06;;;;;;;3.10;1.50;;;;;;;;;;4914245;29;20036;-72
2023/07/16 03:29:35;;;;;;;3.53;1.40;;;;;;;;;;4911981;29;20488;-72
2023/07/16 03:32:01;;;;;;;3.55;1.65;;;;;;;;;;4917219;29;20103;-72
2023/07/16 03:34:27;;;;;;;2.35;1.50;;;;;;;;;;4924485;29;20151;-71
2023/07/16 03:36:53;;;;;;;2.28;1.77;;;;;;;;;;4930388;29;20031;-73
2023/07/16 03:39:19;;;;;;;3.40;1.92;;;;;;;;;;4935997;29;20065;-72
2023/07/16 03:41:45;;;;;;;3.72;2.28;;;;;;;;;;4924611;29;20028;-72
2023/07/16 03:44:11;;;;;;;1.75;1.60;;;;;;;;;;4908280;29;20035;-72
2023/07/16 03:46:37;;;;;;;4.43;1.65;;;;;;;;;;4936370;29;20035;-72
2023/07/16 03:49:03;;;;;;;3.95;1.70;;;;;;;;;;4934949;29;20106;-72
2023/07/16 03:51:29;;;;;;;4.10;2.05;;;;;;;;;;4936511;29;20074;-72
2023/07/16 03:53:56;;;;;;;4.68;1.90;;;;;;;;;;4918382;29;20047;-73
2023/07/16 03:56:22;;;;;;;4.50;1.92;;;;;;;;;;4939090;29;20023;-73
2023/07/16 03:58:48;;;;;;;4.80;1.88;;;;;;;;;;4940618;29;20028;-73
2023/07/16 04:01:14;;;;;;;4.55;1.83;;;;;;;;;;4923380;29;20751;-73
2023/07/16 04:03:40;;;;;;;4.63;1.85;;;;;;;;;;4943113;29;20023;-71
2023/07/16 04:06:09;;;;;;;5.40;1.85;;;;;;;;;;4944717;29;20035;-73
2023/07/16 04:08:35;;;;;;;3.95;1.83;;;;;;;;;;4947976;29;20023;-73
2023/07/16 04:11:01;;;;;;;2.55;1.70;;;;;;;;;;4936328;29;20030;-72
2023/07/16 04:13:27;;;;;;;2.40;1.80;;;;;;;;;;4935993;29;20036;-73
2023/07/16 04:15:54;;;;;;;3.03;2.03;;;;;;;;;;4934302;29;20102;-73
2023/07/16 04:18:20;;;;;;;5.25;1.90;;;;;;;;;;4925989;29;20389;-73
2023/07/16 04:20:46;;;;;;;3.83;1.95;;;;;;;;;;4935166;29;20035;-73
2023/07/16 04:23:12;;;;;;;3.63;1.98;;;;;;;;;;4935621;29;20024;-75
2023/07/16 04:25:38;;;;;;;3.90;1.95;;;;;;;;;;4935090;29;20517;-72
2023/07/16 04:28:04;;;;;;;4.18;1.73;;;;;;;;;;4926557;29;20028;-72
2023/07/16 04:30:30;;;;;;;3.08;2.20;;;;;;;;;;4923059;29;20028;-71
2023/07/16 04:32:56;;;;;;;4.95;2.25;;;;;;;;;;4932587;29;20489;-73
2023/07/16 04:35:22;;;;;;;2.60;1.73;;;;;;;;;;4932867;29;20084;-72
2023/07/16 04:37:48;;;;;;;2.70;1.98;;;;;;;;;;4933926;29;20036;-72
2023/07/16 04:40:14;;;;;;;4.40;1.60;;;;;;;;;;4907169;29;20037;-72
2023/07/16 04:42:40;;;;;;;4.65;1.98;;;;;;;;;;4919973;29;20114;-72
2023/07/16 04:45:06;;;;;;;5.47;2.20;;;;;;;;;;4919631;29;20027;-72
2023/07/16 04:47:32;;;;;;;3.75;1.92;;;;;;;;;;4918266;29;20691;-73
2023/07/16 04:49:59;;;;;;;2.55;1.80;;;;;;;;;;4925713;29;20031;-71
2023/07/16 04:52:25;;;;;;;7.70;2.00;;;;;;;;;;4914708;29;20020;-73
2023/07/16 04:54:51;;;;;;;4.75;2.20;;;;;;;;;;4926261;29;20131;-73
2023/07/16 04:57:17;;;;;;;4.45;1.73;;;;;;;;;;4933374;29;20036;-73
2023/07/16 04:59:43;;;;;;;4.93;2.42;;;;;;;;;;4933001;29;20028;-73
2023/07/16 05:02:09;;;;;;;3.08;1.60;;;;;;;;;;4932939;29;20031;-73
2023/07/16 05:04:35;;;;;;;2.55;1.95;;;;;;;;;;4933097;29;20075;-73
2023/07/16 05:07:02;;;;;;;2.42;1.88;;;;;;;;;;4930722;29;20087;-73
2023/07/16 05:09:28;;;;;;;1.92;1.65;;;;;;;;;;4931897;29;20036;-72
2023/07/16 05:11:54;;;;;;;2.72;1.85;;;;;;;;;;4933005;29;20050;-72
2023/07/16 05:14:20;;;;;;;5.75;2.00;;;;;;;;;;4932788;29;20035;-72
2023/07/16 05:16:46;;;;;;;6.20;2.22;;;;;;;;;;4927674;29;20051;-72
2023/07/16 05:19:12;;;;;;;5.97;2.05;;;;;;;;;;4929703;29;20058;-78
2023/07/16 05:21:38;;;;;;;6.15;2.30;;;;;;;;;;4933615;29;20039;-75
2023/07/16 05:24:04;;;;;;;3.40;1.92;;;;;;;;;;4927763;29;20943;-76
2023/07/16 05:26:31;;;;;;;2.55;1.60;;;;;;;;;;4908222;29;20027;-78
2023/07/16 05:28:57;;;;;;;3.47;1.95;;;;;;;;;;4932214;29;20024;-77
2023/07/16 05:31:23;;;;;;;8.10;2.25;;;;;;;;;;4932563;29;20485;-77
2023/07/16 05:33:49;;;;;;;5.05;1.75;;;;;;;;;;4915224;29;20055;-74
2023/07/16 05:36:15;;;;;;;2.17;1.30;;;;;;;;;;4908452;29;20054;-73
2023/07/16 05:38:41;;;;;;;3.88;1.48;;;;;;;;;;4932461;29;20059;-74
2023/07/16 05:41:07;;;;;;;4.13;1.90;;;;;;;;;;4920268;29;20036;-73
2023/07/16 05:43:33;;;;;;;4.10;2.40;;;;;;;;;;4933440;29;20027;-73
2023/07/16 05:45:59;;;;;;;3.17;1.75;;;;;;;;;;4932284;29;20028;-74
2023/07/16 05:48:25;;;;;;;3.70;1.50;;;;;;;;;;4915904;29;20170;-74
2023/07/16 05:50:51;;;;;;;2.90;1.40;;;;;;;;;;4932085;29;20036;-74
2023/07/16 05:53:17;;;;;;;2.90;1.75;;;;;;;;;;4930785;29;20028;-73
2023/07/16 05:55:43;;;;;;;6.57;1.80;;;;;;;;;;4932426;29;20694;-70
2023/07/16 05:58:09;;;;;;;4.55;1.60;;;;;;;;;;4928994;29;20028;-72
2023/07/16 06:00:35;;;;;;;3.90;1.48;;;;;;;;;;4924865;29;20027;-72
2023/07/16 06:03:05;;;;;;;11.20;2.10;;;;;;;;;;4917788;29;20374;-72
2023/07/16 06:05:34;;;;;;;7.85;1.40;;;;;;;;;;4932195;29;20099;-73
2023/07/16 06:08:00;;;;;;;3.40;1.33;;;;;;;;;;4914927;29;20392;-74
2023/07/16 06:10:26;;;;;;;7.35;1.90;;;;;;;;;;4934228;29;20268;-81
2023/07/16 06:12:52;;;;;;;6.35;1.73;;;;;;;;;;4940354;29;20027;-85
2023/07/16 06:15:18;;;;;;;3.65;1.63;;;;;;;;;;4933047;29;20020;-80
2023/07/16 06:17:44;;;;;;;4.47;1.70;;;;;;;;;;4926931;29;20027;-79
2023/07/16 06:20:11;;;;;;;9.13;1.90;;;;;;;;;;4938803;29;20504;-78
2023/07/16 06:22:37;;;;;;;5.75;2.08;;;;;;;;;;4927030;29;20111;-75
2023/07/16 06:25:04;;;;;;;4.90;1.70;;;;;;;;;;4893748;29;20028;-78
2023/07/16 06:27:30;;;;;;;8.63;2.05;;;;;;;;;;4910592;29;20079;-77
2023/07/16 06:29:56;;;;;;;3.58;1.60;;;;;;;;;;4931360;29;20359;-75
2023/07/16 06:32:22;;;;;;;5.85;2.10;;;;;;;;;;4898072;29;20091;-78
2023/07/16 06:34:48;;;;;;;3.28;1.40;;;;;;;;;;4918762;29;20056;-79
2023/07/16 06:37:14;;;;;;;6.40;2.47;;;;;;;;;;4919236;29;20055;-78
2023/07/16 06:39:40;;;;;;;4.85;1.85;;;;;;;;;;4914417;29;20021;-78
2023/07/16 06:42:06;;;;;;;7.13;1.80;;;;;;;;;;4914086;29;20034;-79
2023/07/16 06:44:32;;;;;;;4.68;1.67;;;;;;;;;;4910596;29;20386;-80
2023/07/16 06:46:58;;;;;;;6.90;1.92;;;;;;;;;;4945597;29;20038;-82
2023/07/16 06:49:24;;;;;;;6.88;1.92;;;;;;;;;;4947795;29;20043;-80
2023/07/16 06:51:50;;;;;;;3.85;1.50;;;;;;;;;;4925680;29;20044;-75
2023/07/16 06:54:16;;;;;;;14.55;1.90;;;;;;;;;;4936663;29;20032;-76
2023/07/16 06:56:42;;;;;;;6.68;2.30;;;;;;;;;;4937309;29;20024;-76
2023/07/16 06:59:08;;;;;;;7.30;1.83;;;;;;;;;;4936209;29;20035;-70
2023/07/16 07:01:34;;;;;;;6.50;2.20;;;;;;;;;;4939669;29;20023;-69
2023/07/16 07:04:00;;;;;;;4.47;1.77;;;;;;;;;;4941273;29;20035;-69
2023/07/16 07:06:26;;;;;;;8.38;2.05;;;;;;;;;;4938728;29;20063;-70
2023/07/16 07:08:52;;;;;;;4.70;1.50;;;;;;;;;;4939093;29;20031;-69
2023/07/16 07:11:18;;;;;;;5.25;1.83;;;;;;;;;;4944960;29;20024;-69
2023/07/16 07:13:44;;;;;;;4.03;1.42;;;;;;;;;;4944550;29;20492;-70
2023/07/16 07:16:10;;;;;;;5.80;1.60;;;;;;;;;;4944007;29;20035;-69
2023/07/16 07:18:36;;;;;;;4.00;1.70;;;;;;;;;;4945309;29;20036;-69
2023/07/16 07:21:02;;;;;;;3.25;1.40;;;;;;;;;;4942775;29;20035;-69
2023/07/16 07:23:28;;;;;;;5.72;1.95;;;;;;;;;;4937585;29;20035;-69
2023/07/16 07:25:54;;;;;;;3.65;1.58;;;;;;;;;;4927122;29;20028;-69
2023/07/16 07:28:21;;;;;;;5.45;1.73;;;;;;;;;;4925407;29;20035;-70
2023/07/16 07:30:47;;;;;;;4.32;1.60;;;;;;;;;;4937852;29;20035;-70
2023/07/16 07:33:13;;;;;;;3.97;1.70;;;;;;;;;;4945696;29;20107;-69
2023/07/16 07:35:39;;;;;;;4.97;2.28;;;;;;;;;;4944804;29;20099;-69
2023/07/16 07:38:05;;;;;;;9.02;1.83;;;;;;;;;;4944459;29;20070;-69
2023/07/16 07:40:31;;;;;;;5.90;1.52;;;;;;;;;;4936290;29;20020;-69
2023/07/16 07:42:57;;;;;;;5.65;1.92;;;;;;;;;;4939360;29;20042;-69
2023/07/16 07:45:24;;;;;;;2.85;1.35;;;;;;;;;;4943335;29;20032;-69
2023/07/16 07:47:49;;;;;;;4.32;1.48;;;;;;;;;;4944174;29;20019;-70
2023/07/16 07:50:15;;;;;;;4.43;1.55;;;;;;;;;;4944560;29;20042;-71
2023/07/16 07:52:41;;;;;;;4.22;1.70;;;;;;;;;;4943797;29;20056;-69
2023/07/16 07:55:08;;;;;;;6.15;1.70;;;;;;;;;;4941355;29;20020;-69
2023/07/16 07:57:34;;;;;;;4.97;1.55;;;;;;;;;;4938699;29;20100;-69
2023/07/16 08:00:00;;;;;;;4.72;1.50;;;;;;;;;;4939240;29;20090;-70
2023/07/16 08:02:26;;;;;;;4.38;1.52;;;;;;;;;;4940325;29;20020;-70
2023/07/16 08:04:52;;;;;;;3.47;1.60;;;;;;;;;;4939550;29;20020;-70
2023/07/16 08:07:18;;;;;;;8.00;2.13;;;;;;;;;;4940440;29;20374;-70
2023/07/16 08:09:45;;;;;;;2.40;1.38;;;;;;;;;;4939511;29;20111;-69
2023/07/16 08:12:11;;;;;;;4.72;1.77;;;;;;;;;;4940352;29;20031;-70
2023/07/16 08:14:37;;;;;;;4.68;1.65;;;;;;;;;;4932905;29;20036;-70
2023/07/16 08:17:03;;;;;;;3.92;1.33;;;;;;;;;;4934788;29;20027;-70
2023/07/16 08:19:29;;;;;;;3.75;1.35;;;;;;;;;;4939196;29;20095;-70
2023/07/16 08:21:55;;;;;;;2.70;1.70;;;;;;;;;;4939160;29;20059;-69
2023/07/16 08:24:21;;;;;;;7.80;1.80;;;;;;;;;;4938914;29;20028;-70
2023/07/16 08:26:47;;;;;;;5.22;1.63;;;;;;;;;;4929963;29;20485;-70
2023/07/16 08:29:13;;;;;;;4.60;1.70;;;;;;;;;;4919501;29;20039;-70
2023/07/16 08:31:40;;;;;;;5.00;1.80;;;;;;;;;;4937076;29;20027;-71
2023/07/16 08:34:06;;;;;;;4.20;1.55;;;;;;;;;;4936804;29;20059;-71
2023/07/16 08:36:33;;;;;;;3.30;1.50;;;;;;;;;;4938145;29;20024;-70
2023/07/16 08:38:59;;;;;;;3.60;1.58;;;;;;;;;;4937389;29;20054;-70
2023/07/16 08:41:25;;;;;;;3.70;1.20;;;;;;;;;;4926577;29;20470;-70
2023/07/16 08:43:52;;;;;;;3.35;2.00;;;;;;;;;;4936782;29;20359;-71
2023/07/16 08:46:18;;;;;;;4.78;1.80;;;;;;;;;;4938852;29;20032;-70
2023/07/16 08:48:45;;;;;;;2.70;1.63;;;;;;;;;;4930073;29;20048;-70
2023/07/16 08:51:13;;;;;;;5.00;1.98;;;;;;;;;;4919007;29;20054;-70
2023/07/16 08:53:39;;;;;;;5.30;1.75;;;23.50;99.90;;;;;;4937928;29;20024;-70
2023/07/16 08:56:05;;;;;;;3.42;1.50;;;23.60;99.90;;;;;;4937813;29;20039;-70
2023/07/16 08:58:31;;;;;;;5.88;1.73;;;23.50;99.90;;;;;;4938323;29;20043;-70
2023/07/16 09:00:58;;;;;;;3.28;1.50;;;23.30;99.90;;;;;;4936364;29;20027;-70
2023/07/16 09:03:23;;;;;;;2.15;1.65;;;23.10;99.90;;;;;;4936180;29;20036;-70
2023/07/16 09:05:49;;;;;;;4.65;1.73;;;23.10;99.90;;;;;;4927429;29;20072;-70
2023/07/16 09:08:15;;;;;;;2.47;1.75;;;23.20;99.90;;;;;;4927077;29;20030;-70
2023/07/16 09:10:43;;;;;;;3.50;1.95;;;23.30;99.90;;;;;;4936532;29;20043;-70
2023/07/16 09:13:10;;;;;;;4.30;1.63;;;23.40;99.90;;;;;;4935679;29;20481;-71
2023/07/16 09:15:37;;;;;;;2.80;1.45;;;23.40;99.90;;;;;;4934310;29;20039;-70
2023/07/16 09:18:03;;;;;;;3.53;1.50;;;23.40;99.60;;;;;;4934843;29;20114;-70
2023/07/16 09:20:30;;;;;;;4.40;2.40;;;23.40;99.50;;;;;;4936194;29;20032;-70
2023/07/16 09:22:57;;;;;;;2.47;1.45;;;23.40;99.90;;;;;;4911233;29;20095;-71
2023/07/16 09:25:29;;;;;;;3.03;1.60;;;23.50;99.90;;;;;;4934644;29;20059;-70
2023/07/16 09:27:57;;;;;;;3.22;1.50;;;23.70;99.40;;;;;;4923124;29;20123;-71
2023/07/16 09:30:23;;;;;;;3.83;1.48;;;23.90;99.20;;;;;;4937103;29;20036;-70
2023/07/16 09:32:48;;;;;;;3.17;1.60;;;24.10;97.70;;;;;;4933817;29;20028;-71
2023/07/16 09:35:15;;;;;;;4.82;3.03;;;24.10;98.20;;;;;;4933556;29;20413;-70
2023/07/16 09:37:42;;;;;;;2.60;1.70;;;24.40;97.40;;;;;;4934147;29;20473;-70
2023/07/16 09:40:10;;;;;;;2.80;1.50;;;24.60;96.60;;;;;;4926739;29;20538;-71
2023/07/16 09:42:40;;;;;;;4.60;1.92;;;24.80;96.50;;;;;;4926418;29;20034;-71
2023/07/16 09:45:10;;;;;;;2.42;1.67;;;25.00;95.80;;;;;;4933219;29;20040;-71
2023/07/16 09:47:36;;;;;;;5.72;4.80;;;25.00;95.20;;;;;;4934230;29;20035;-70
2023/07/16 09:50:04;;;;;;;10.70;8.55;;;25.00;99.90;;;;;;4934008;29;20038;-71
2023/07/16 09:52:32;;;;;;;22.13;19.38;;;25.10;99.90;;;;;;4934259;29;20184;-71
2023/07/16 09:55:02;;;;;;;5.55;3.45;;;25.10;99.90;;;;;;4933008;29;20437;-71
2023/07/16 09:57:30;;;;;;;5.30;3.67;;;;;;;;;;4923358;29;20485;-71
2023/07/16 09:59:59;;;;;;;6.15;4.47;;;;;;;;;;4933087;29;20107;-71
2023/07/16 10:02:25;;;;;;;4.30;3.00;;;;;;;;;;4917198;29;20060;-71
2023/07/16 10:04:52;;;;;;;4.13;2.38;;;;;;;;;;4932876;29;20054;-71
2023/07/16 10:07:22;;;;;;;2.25;1.48;;;;;;;;;;4933879;29;20028;-71
2023/07/16 10:09:52;;;;;;;3.08;1.70;;;;;;;;;;4933109;29;20374;-70
2023/07/16 10:12:19;;;;;;;3.85;1.52;;;;;;;;;;4933880;29;20030;-70
2023/07/16 10:14:46;;;;;;;3.42;1.63;;;;;;;;;;4917868;29;20099;-70
2023/07/16 10:17:14;;;;;;;4.97;1.50;;;;;;;;;;4930987;29;20020;-70
2023/07/16 10:19:56;;;;;;;2.78;1.55;;;;;;;;;;4933562;29;20059;-70
2023/07/16 10:22:32;;;;;;;1.98;1.67;;;;;;;;;;4937469;29;20032;-70
2023/07/16 10:24:58;;;;;;;2.55;1.60;;;;;;;;;;4931704;29;20450;-71
2023/07/16 10:27:28;;;;;;;6.25;1.85;;;;;;;;;;4930211;29;20115;-71
2023/07/16 10:29:54;;;;;;;3.00;1.42;;;;;;;;;;4918743;29;20078;-71
2023/07/16 10:32:21;;;;;;;2.63;1.70;;;;;;;;;;4914806;29;20028;-71
2023/07/16 10:34:47;;;;;;;2.90;1.70;;;;;;;;;;4926367;29;20134;-71
2023/07/16 10:37:13;;;;;;;2.03;1.65;;;;;;;;;;4933277;29;20103;-71
2023/07/16 10:39:46;;;;;;;3.35;1.30;;;;;;;;;;4933344;29;20023;-71
2023/07/16 10:42:13;;;;;;;2.88;1.55;;;;;;;;;;4912220;29;20069;-71
2023/07/16 10:44:40;;;;;;;5.85;1.80;;;;;;;;;;4933494;29;20039;-71
2023/07/16 10:47:06;;;;;;;2.75;1.75;;;;;;;;;;4930639;29;20588;-71
2023/07/16 10:49:32;;;;;;;3.20;1.90;;;;;;;;;;4932574;29;20433;-70
2023/07/16 10:51:59;;;;;;;3.22;1.95;;;;;;;;;;4932364;29;20027;-70
2023/07/16 10:54:25;;;;;;;3.30;1.50;;;;;;;;;;4934189;29;20024;-70
2023/07/16 10:56:51;;;;;;;2.65;1.50;;;;;;;;;;4934587;29;20481;-70
2023/07/16 10:59:20;;;;;;;1.23;1.10;;;;;;;;;;4935690;29;20062;-71
2023/07/16 11:01:46;;;;;;;3.97;1.67;;;;;;;;;;4919402;29;20028;-71
2023/07/16 11:04:12;;;;;;;3.25;1.88;;;;;;;;;;4932326;29;20028;-71
2023/07/16 11:06:38;;;;;;;4.82;2.20;;;;;;;;;;4929166;29;20788;-71
2023/07/16 11:09:08;;;;;;;4.20;1.90;;;;;;;;;;4914775;29;20088;-71
2023/07/16 11:11:34;;;;;;;3.65;1.60;;;;;;;;;;4905229;29;20020;-71
2023/07/16 11:14:00;;;;;;;3.60;1.90;;;;;;;;;;4935434;29;20112;-71
2023/07/16 11:16:26;;;;;;;2.10;1.77;;;;;;;;;;4936609;29;20031;-71
2023/07/16 11:18:52;;;;;;;2.35;1.50;;;;;;;;;;4935420;29;20111;-71
2023/07/16 11:21:21;;;;;;;4.90;1.85;;;;;;;;;;4933583;29;20177;-71
2023/07/16 11:23:50;;;;;;;2.55;1.77;;;;;;;;;;4936211;29;20043;-70
2023/07/16 11:26:16;;;;;;;2.60;1.70;;;;;;;;;;4929980;29;20229;-70
2023/07/16 11:28:42;;;;;;;3.15;1.70;;;;;;;;;;4928887;29;20028;-70
2023/07/16 11:31:14;;;;;;;4.65;2.13;;;;;;;;;;4935402;29;20090;-70
2023/07/16 11:33:43;;;;;;;3.72;1.70;;;;;;;;;;4936123;29;20034;-70
2023/07/16 11:36:09;;;;;;;3.10;1.65;;;;;;;;;;4935266;29;20052;-70
2023/07/16 11:38:38;;;;;;;2.55;1.92;;;;;;;;;;4930087;29;20489;-70
2023/07/16 11:41:04;;;;;;;4.25;1.80;;;;;;;;;;4913845;29;20095;-71
2023/07/16 11:43:35;;;;;;;1.77;1.63;;;;;;;;;;4935656;29;20028;-71
2023/07/16 11:46:01;;;;;;;4.10;1.95;;;;;;;;;;4934830;29;20473;-71
2023/07/16 11:48:27;;;;;;;6.20;1.90;;;;;;;;;;4935714;29;20043;-70
2023/07/16 11:50:52;;;;;;;4.32;1.85;;;;;;;;;;4934958;29;20487;-71
2023/07/16 11:53:18;;;;;;;2.47;1.77;;;;;;;;;;4918866;29;20035;-71
2023/07/16 11:55:44;;;;;;;4.25;2.05;;;;;;;;;;4922466;29;20068;-71
2023/07/16 11:58:10;;;;;;;4.18;2.05;;;;;;;;;;4925964;29;20405;-70
2023/07/16 12:00:36;;;;;;;2.05;1.80;;;;;;;;;;4924938;29;20167;-70
2023/07/16 12:03:02;;;;;;;2.83;1.80;;;;;;;;;;4921220;29;20036;-71
2023/07/16 12:05:28;;;;;;;3.80;1.75;;;;;;;;;;4918594;29;20029;-70
2023/07/16 12:07:54;;;;;;;3.03;1.40;;;;;;;;;;4927875;29;20042;-70
2023/07/16 12:10:21;;;;;;;3.58;1.95;;;;;;;;;;4917164;29;20032;-70
2023/07/16 12:12:47;;;;;;;3.03;1.70;;;;;;;;;;4919638;29;20063;-71
2023/07/16 12:15:13;;;;;;;2.92;1.90;;;;;;;;;;4914929;29;20110;-70
2023/07/16 12:17:38;;;;;;;6.45;2.13;;;;;;;;;;4935294;29;20159;-70
2023/07/16 12:20:05;;;;;;;2.47;1.50;;;;;;;;;;4934365;29;20258;-72
2023/07/16 12:22:31;;;;;;;1.98;1.77;;;;;;;;;;4935009;29;20028;-71
2023/07/16 12:24:57;;;;;;;2.50;1.83;;;;;;;;;;4921886;29;20024;-70
2023/07/16 12:27:26;;;;;;;2.45;1.90;;;;;;;;;;4916578;29;20110;-70
2023/07/16 12:29:52;;;;;;;2.10;1.90;;;;;;;;;;4930290;29;20028;-70
2023/07/16 12:32:20;;;;;;;1.67;1.58;;;;;;;;;;4934241;29;20032;-70
2023/07/16 12:34:46;;;;;;;3.15;2.00;;;;;;;;;;4927796;29;20079;-71
2023/07/16 12:37:12;;;;;;;2.83;1.60;;;;;;;;;;4921132;29;20036;-70
2023/07/16 12:39:38;;;;;;;1.98;1.65;;;;;;;;;;4914838;29;20054;-70
2023/07/16 12:42:04;;;;;;;4.22;1.85;;;;;;;;;;4911285;29;20119;-71
2023/07/16 12:44:30;;;;;;;2.38;1.50;;;;;;;;;;4914707;29;20075;-71
2023/07/16 12:46:56;;;;;;;3.47;1.48;;;;;;;;;;4915832;29;20529;-70
2023/07/16 12:49:22;;;;;;;4.55;1.92;;;;;;;;;;4901830;29;20074;-70
2023/07/16 12:51:48;;;;;;;3.13;1.73;;;;;;;;;;4919512;29;20505;-70
2023/07/16 12:54:14;;;;;;;2.28;2.00;;;;;;;;;;4933058;29;20027;-70
2023/07/16 12:56:42;;;;;;;3.70;1.92;;;;;;;;;;4933099;29;20525;-70
2023/07/16 12:59:08;;;;;;;3.90;2.13;;;;;;;;;;4932749;29;20107;-70
2023/07/16 13:01:34;;;;;;;2.65;1.95;;;29.10;99.60;;;;;;4926441;29;20020;-70
2023/07/16 13:03:59;;;;;;;5.10;1.88;;;29.30;97.10;;;;;;4915149;29;20562;-70
2023/07/16 13:06:25;;;;;;;4.07;1.50;;;29.20;96.70;;;;;;4921155;29;20027;-70
2023/07/16 13:08:51;;;;;;;2.45;1.40;;;29.10;96.60;;;;;;4918686;29;20043;-69
2023/07/16 13:11:16;;;;;;;2.92;2.00;;;29.00;96.70;;;;;;4913974;29;20050;-69
2023/07/16 13:13:43;;;;;;;4.18;1.60;;;28.90;96.70;;;;;;4927107;29;20032;-69
2023/07/16 13:16:12;;;;;;;1.95;1.80;;;28.90;96.60;;;;;;4915547;29;20142;-70
2023/07/16 13:18:38;;;;;;;2.55;1.67;;;29.00;95.90;;;;;;4925194;29;20461;-70
2023/07/16 13:21:04;;;;;;;3.38;1.75;;;29.00;95.90;;;;;;4922512;29;20111;-69
2023/07/16 13:23:29;;;;;;;4.03;2.15;;;29.10;96.00;;;;;;4932568;29;20436;-71
2023/07/16 13:25:56;;;;;;;6.43;2.13;;;29.30;96.30;;;;;;4931416;29;20028;-70
2023/07/16 13:28:23;;;;;;;2.63;2.08;;;29.40;95.30;;;;;;4932466;29;20039;-70
2023/07/16 13:30:48;;;;;;;6.22;2.53;;;29.20;95.20;;;;;;4931187;29;20031;-70
2023/07/16 13:33:14;;;;;;;3.92;1.90;;;29.00;95.40;;;;;;4920515;29;20124;-70
2023/07/16 13:35:40;;;;;;;2.80;1.90;;;28.80;95.50;;;;;;4933145;29;20044;-70
2023/07/16 13:38:06;;;;;;;2.85;1.77;;;28.50;95.50;;;;;;4922011;29;20048;-70
2023/07/16 13:40:32;;;;;;;4.78;1.98;;;28.40;96.10;;;;;;4917081;29;20028;-70
2023/07/16 13:42:58;;;;;;;4.15;1.52;;;28.30;96.00;;;;;;4927789;29;20430;-71
2023/07/16 13:45:24;;;;;;;3.08;1.95;;;28.30;96.10;;;;;;4931595;29;20101;-70
2023/07/16 13:47:52;;;;;;;3.45;1.55;;;28.40;95.90;;;;;;4918315;29;20040;-70
2023/07/16 13:50:18;;;;;;;2.70;2.17;;;28.30;96.30;;;;;;4932510;29;20059;-71
2023/07/16 13:52:44;;;;;;;3.20;1.95;;;28.70;96.20;;;;;;4918820;29;20036;-71
2023/07/16 13:55:10;;;;;;;2.17;1.75;;;29.10;95.60;;;;;;4916652;29;20486;-70
2023/07/16 13:57:38;;;;;;;5.60;1.83;;;;;;;;;;4932670;29;20039;-70
2023/07/16 14:00:05;;;;;;;3.00;1.80;;;29.90;99.10;;;;;;4931890;29;20027;-71
2023/07/16 14:02:31;;;;;;;2.25;1.98;;;;;;;;;;4927569;29;20111;-71
2023/07/16 14:04:58;;;;;;;4.85;2.00;;;;;;;;;;4906667;29;20075;-71
2023/07/16 14:07:25;;;;;;;2.97;1.80;;;;;;;;;;4907665;29;20033;-70
2023/07/16 14:09:52;;;;;;;4.07;1.67;;;;;;;;;;4904885;29;20024;-70
2023/07/16 14:12:18;;;;;;;6.05;1.63;;;;;;;;;;4906100;29;20041;-70
2023/07/16 14:14:45;;;;;;;1.70;1.60;;;;;;;;;;4925726;29;20042;-70
2023/07/16 14:17:12;;;;;;;4.97;1.90;;;;;;;;;;4917609;29;20028;-70
2023/07/16 14:19:38;;;;;;;3.25;1.88;;;;;;;;;;4932159;29;20082;-70